Latest Weather Observations for Jabiru

IDD60801

Issued at 3:35 pm CST Wednesday 26 November 2014 (issued every 30 minutes, with the page automatically refreshed every 10 minutes)

About weather observations | Map of weather stations | Latest weather observations for NT | Other Formats
Station Details ID: 014198 Name: JABIRU AIRPORT Lat: -12.66 Lon: 132.89 Height: 26.5 m
Data from the previous 72 hours. | See also: Recent months at Jabiru
Date/Time
CST
Temp
°C
App
Temp
°C
Dew
Point
Rel
Hum
%
Delta-T
°C
Wind Press
QNH
hPa
Press
MSL
hPa
Rain
since 9 am
mm
Dir
 
Spd
km/h
Gust
km/h
Spd
kts
Gust
kts
26/03:30pm 36.3 37.6 19.3 37 11.3 N 11 20 6 11 1004.4 1004.2 0.0
26/03:00pm 35.9 37.1 19.8 39 10.8 E 13 20 7 11 1004.6 1004.4 0.0
26/02:30pm 35.7 35.0 18.3 35 11.4 ENE 19 26 10 14 1004.9 1004.7 0.0
26/02:00pm 36.6 37.9 20.8 39 10.7 NE 15 26 8 14 1005.1 1004.9 0.0
26/01:30pm 35.4 36.3 19.3 38 10.7 ENE 13 24 7 13 1005.9 1005.7 0.0
26/01:00pm 34.6 35.9 20.9 44 9.2 E 15 20 8 11 1006.6 1006.4 0.0
26/12:30pm 33.8 35.5 21.6 49 8.3 ENE 15 22 8 12 1007.3 1007.1 0.0
26/12:00pm 33.7 35.3 20.8 46 8.7 E 13 30 7 16 1007.8 1007.6 0.0
26/11:30am 32.7 35.8 22.2 54 7.2 NE 9 15 5 8 1008.3 1008.0 0.0
26/11:00am 32.3 33.9 21.5 53 7.3 E 15 22 8 12 1009.0 1008.7 0.0
26/10:30am 32.2 35.8 22.3 56 6.8 NE 7 17 4 9 1009.4 1009.1 0.0
26/10:00am 31.5 34.4 21.7 56 6.6 ENE 9 17 5 9 1009.6 1009.3 0.0
26/09:30am 31.1 34.1 21.3 56 6.6 ENE 7 11 4 6 1009.6 1009.3 0.0
26/09:00am 30.0 33.7 21.4 60 5.8 SSE 4 9 2 5 1009.4 1009.1 0.6
26/08:30am 29.1 33.1 22.8 69 4.3 SSE 6 9 3 5 1009.4 1009.1 0.4
26/08:00am 28.2 33.0 24.2 79 2.8 SSE 6 11 3 6 1009.1 1008.8 0.4
26/07:30am 26.9 31.6 24.0 84 2.0 S 6 7 3 4 1008.8 1008.5 0.4
26/07:00am 26.1 31.9 24.0 88 1.4 CALM 0 0 0 0 1008.4 1008.1 0.4
26/06:30am 25.4 31.2 24.0 92 1.0 CALM 0 0 0 0 1007.9 1007.7 0.4
26/06:00am 24.8 29.5 23.4 92 1.0 E 4 6 2 3 1007.7 1007.5 0.4
26/05:30am 25.2 30.8 23.6 91 1.1 CALM 0 0 0 0 1007.1 1006.9 0.4
26/05:00am 25.1 30.8 23.7 92 1.0 CALM 0 0 0 0 1007.0 1006.8 0.4
26/04:30am 25.1 30.8 23.7 92 1.0 CALM 0 6 0 3 1006.7 1006.5 0.4
26/04:00am 25.1 30.3 23.5 91 1.1 N 2 9 1 5 1006.9 1006.7 0.4
26/03:30am 25.4 29.8 23.5 89 1.3 NW 6 6 3 3 1006.9 1006.7 0.4
26/03:00am 25.7 29.9 23.4 87 1.6 WSW 7 9 4 5 1007.1 1006.9 0.4
26/02:30am 25.9 30.3 23.4 86 1.7 WSW 6 7 3 4 1007.1 1006.9 0.4
26/02:00am 26.0 31.4 23.3 85 1.8 CALM 0 0 0 0 1007.2 1007.0 0.4
26/01:30am 26.3 30.4 23.0 82 2.2 W 6 7 3 4 1007.5 1007.3 0.4
26/01:00am 26.7 30.8 23.2 81 2.4 W 7 9 4 5 1007.9 1007.7 0.4
26/12:30am 26.4 31.1 23.3 83 2.1 E 4 7 2 4 1008.5 1008.2 0.4
26/12:00am 26.2 30.3 23.3 84 2.0 ESE 7 9 4 5 1009.0 1008.7 0.4
 
Date/Time
CST
Temp
°C
App
Temp
°C
Dew
Point
Rel
Hum
%
Delta-T
°C
Wind Press
QNH
hPa
Press
MSL
hPa
Rain
since 9 am
mm
Dir
 
Spd
km/h
Gust
km/h
Spd
kts
Gust
kts
25/11:30pm 26.4 30.3 22.9 81 2.4 E 7 11 4 6 1009.4 1009.1 0.4
25/11:00pm 26.1 29.7 23.0 83 2.1 E 9 13 5 7 1009.3 1009.0 0.4
25/10:30pm 26.2 29.9 23.3 84 2.0 E 9 13 5 7 1009.2 1008.9 0.4
25/10:00pm 26.1 29.8 23.2 84 2.0 E 9 11 5 6 1009.0 1008.7 0.4
25/09:30pm 26.1 29.7 23.0 83 2.1 ENE 9 11 5 6 1008.5 1008.2 0.4
25/09:00pm 26.3 30.3 22.8 81 2.4 E 6 7 3 4 1008.3 1008.0 0.4
25/08:30pm 26.2 30.7 22.3 79 2.6 SE 2 6 1 3 1008.4 1008.1 0.4
25/08:00pm 26.2 29.9 22.3 79 2.6 S 6 9 3 5 1008.5 1008.2 0.4
25/07:30pm 26.4 29.9 21.8 76 3.1 SW 6 7 3 4 1007.9 1007.7 0.4
25/07:00pm 26.4 30.5 21.6 75 3.2 N 2 7 1 4 1007.4 1007.2 0.4
25/06:30pm 26.2 29.1 21.8 77 2.9 N 9 15 5 8 1007.1 1006.9 0.4
25/06:00pm 25.9 27.8 22.0 79 2.6 NW 15 20 8 11 1007.0 1006.8 0.4
25/05:30pm 25.9 27.7 21.8 78 2.7 NNW 15 24 8 13 1007.1 1006.9 0.4
25/05:00pm 26.7 29.0 22.8 79 2.6 N 15 26 8 14 1006.9 1006.7 0.4
25/04:30pm 27.3 29.0 23.1 78 2.9 WNW 19 20 10 11 1005.9 1005.7 0.4
25/04:00pm 26.8 29.5 22.2 76 3.1 NNE 11 17 6 9 1005.5 1005.3 0.4
25/03:30pm 26.5 28.2 21.7 75 3.2 NNE 15 22 8 12 1005.5 1005.3 0.4
25/03:00pm 25.5 25.8 23.0 86 1.7 NNE 26 35 14 19 1006.5 1006.3 0.4
25/02:43pm 28.4 26.7 22.4 70 4.1 ENE 35 54 19 29 1006.4 1006.2 0.0
25/02:35pm 31.4 27.6 21.3 55 6.8 NE 43 50 23 27 1006.3 1006.1 0.0
25/02:30pm 34.8 37.1 20.7 43 9.5 NE 9 13 5 7 1005.7 1005.5 0.0
25/02:00pm 34.7 37.0 20.6 43 9.5 W 9 15 5 8 1005.9 1005.7 0.0
25/01:30pm 34.2 36.1 20.6 45 9.1 W 11 17 6 9 1006.8 1006.6 0.0
25/01:00pm 33.9 36.5 22.0 49 8.1 W 11 17 6 9 1007.8 1007.6 0.0
25/12:30pm 33.2 37.1 22.6 53 7.3 NNE 6 9 3 5 1008.4 1008.1 0.0
25/12:00pm 32.7 36.2 22.8 56 6.8 WNW 9 13 5 7 1008.9 1008.6 0.0
25/11:30am 31.9 35.4 22.9 59 6.2 WSW 9 13 5 7 1009.1 1008.8 0.0
25/11:00am 31.5 34.4 22.5 59 6.2 W 11 13 6 7 1009.2 1008.9 0.0
25/10:30am 31.2 34.9 22.5 60 5.9 ENE 7 9 4 5 1009.5 1009.2 0.0
25/10:00am 31.2 35.2 22.8 61 5.8 ENE 6 11 3 6 1009.6 1009.3 0.0
25/09:30am 30.5 34.4 22.9 64 5.2 E 7 11 4 6 1009.8 1009.5 0.0
25/09:00am 29.8 34.7 24.4 73 3.8 ESE 6 9 3 5 1009.8 1009.5 29.8
25/08:30am 27.8 32.1 24.2 81 2.5 SE 9 11 5 6 1009.8 1009.5 29.8
25/08:00am 26.9 31.2 24.2 85 1.9 E 9 13 5 7 1009.5 1009.2 29.8
25/07:30am 26.5 31.2 24.9 91 1.1 E 9 13 5 7 1009.3 1009.0 29.8
25/07:00am 26.2 31.2 24.8 92 1.0 E 7 11 4 6 1009.2 1008.9 29.8
25/06:30am 26.1 32.1 24.3 90 1.2 CALM 0 0 0 0 1008.8 1008.5 29.8
25/06:00am 26.0 32.1 24.4 91 1.1 CALM 0 0 0 0 1008.5 1008.2 29.8
25/05:30am 26.0 32.1 24.4 91 1.1 CALM 0 0 0 0 1008.4 1008.1 29.8
25/05:00am 26.0 32.2 24.6 92 1.0 CALM 0 2 0 1 1008.2 1007.9 29.8
25/04:30am 26.1 31.3 25.1 94 0.7 SW 7 7 4 4 1008.3 1008.0 29.8
25/04:00am 26.1 31.2 24.9 93 0.8 SSW 7 11 4 6 1008.4 1008.1 29.8
25/03:30am 26.1 31.4 24.9 93 0.8 SSW 6 9 3 5 1008.1 1007.8 29.8
25/03:00am 26.2 31.4 24.8 92 1.0 SW 6 7 3 4 1008.1 1007.8 29.8
25/02:30am 26.3 32.7 24.9 92 1.0 CALM 0 6 0 3 1007.9 1007.7 29.8
25/02:00am 26.4 32.7 24.8 91 1.1 CALM 0 0 0 0 1008.2 1007.9 29.8
25/01:30am 26.1 32.5 24.9 93 0.8 CALM 0 0 0 0 1008.5 1008.2 29.8
25/01:00am 26.1 31.5 24.5 91 1.1 NE 4 7 2 4 1008.9 1008.6 29.8
25/12:30am 26.2 31.1 24.6 91 1.1 NNE 7 9 4 5 1009.2 1008.9 29.6
25/12:00am 26.0 30.4 24.4 91 1.1 ESE 9 13 5 7 1010.6 1010.3 29.6
 
Date/Time
CST
Temp
°C
App
Temp
°C
Dew
Point
Rel
Hum
%
Delta-T
°C
Wind Press
QNH
hPa
Press
MSL
hPa
Rain
since 9 am
mm
Dir
 
Spd
km/h
Gust
km/h
Spd
kts
Gust
kts
24/11:30pm 25.9 29.7 24.7 93 0.8 ENE 13 15 7 8 1010.7 1010.4 29.6
24/11:00pm 25.4 29.8 23.8 91 1.1 NNE 7 9 4 5 1010.3 1010.0 29.6
24/10:30pm 25.6 29.2 23.8 90 1.2 WNW 11 15 6 8 1010.1 1009.8 29.6
24/10:00pm 25.0 29.2 24.1 95 0.6 N 9 17 5 9 1010.3 1010.0 29.6
24/09:30pm 26.0 30.6 24.8 93 0.8 N 9 13 5 7 1010.4 1010.1 23.4
24/09:00pm 26.1 29.4 24.5 91 1.1 WNW 15 20 8 11 1009.9 1009.6 19.6
24/08:30pm 30.5 33.6 22.9 64 5.2 W 11 17 6 9 1009.4 1009.1 0.2
24/08:00pm 30.9 33.7 23.0 62 5.4 WNW 13 19 7 10 1008.3 1008.0 0.2
24/07:30pm 30.5 33.4 23.2 65 5.0 NW 13 19 7 10 1007.6 1007.4 0.2
24/07:00pm 30.5 32.1 22.9 64 5.2 NW 19 26 10 14 1007.1 1006.9 0.2
24/06:30pm 31.6 33.6 22.3 57 6.4 NNW 15 20 8 11 1006.6 1006.4 0.2
24/06:00pm 31.8 34.9 22.2 56 6.6 NNE 9 11 5 6 1006.4 1006.2 0.2
24/05:30pm 31.8 34.9 22.8 59 6.2 WSW 11 17 6 9 1005.4 1005.2 0.2
24/05:00pm 31.2 33.9 22.2 58 6.1 S 11 17 6 9 1005.2 1005.0 0.2
24/04:30pm 35.2 36.6 19.6 40 10.4 NE 11 17 6 9 1005.0 1004.8 0.0
24/04:00pm 37.0 38.3 19.4 35 11.7 NNW 11 19 6 10 1004.7 1004.5 0.0
24/03:30pm 36.2 38.4 19.6 37 11.1 N 7 15 4 8 1005.2 1005.0 0.0
24/03:00pm 37.4 39.1 20.2 36 11.6 NW 11 17 6 9 1005.5 1005.3 0.0
24/02:30pm 37.2 39.3 20.1 37 11.5 NNE 9 22 5 12 1005.9 1005.7 0.0
24/02:00pm 36.0 38.0 19.9 39 10.8 ENE 9 15 5 8 1006.8 1006.6 0.0
24/01:30pm 36.3 38.5 20.5 39 10.7 NW 9 15 5 8 1007.9 1007.7 0.0
24/01:00pm 34.8 36.4 20.0 42 9.9 NNE 11 15 6 8 1009.0 1008.7 0.0
24/12:30pm 33.9 36.1 20.3 45 9.1 SSW 9 15 5 8 1009.7 1009.4 0.0
24/12:00pm 33.7 36.1 20.8 46 8.7 SSW 9 15 5 8 1010.3 1010.0 0.0
24/11:30am 32.8 35.3 21.0 50 7.9 NW 9 15 5 8 1010.9 1010.6 0.0
24/11:00am 32.5 35.7 21.7 53 7.3 N 7 13 4 7 1011.2 1010.9 0.0
24/10:30am 31.9 35.3 22.0 55 6.7 NNE 7 13 4 7 1011.6 1011.3 0.0
24/10:00am 31.2 34.8 23.0 61 5.6 WNW 9 13 5 7 1011.6 1011.3 0.0
24/09:30am 31.1 35.0 23.0 62 5.6 W 7 15 4 8 1011.6 1011.3 0.0
24/09:00am 29.7 33.9 23.4 69 4.3 WSW 7 11 4 6 1011.5 1011.2 0.0
24/08:30am 28.6 32.3 23.3 73 3.6 WSW 9 11 5 6 1011.3 1011.0 0.0
24/08:00am 28.2 32.3 23.3 75 3.4 SW 7 9 4 5 1011.2 1010.9 0.0
24/07:30am 27.3 31.3 23.1 78 2.9 SW 7 11 4 6 1011.0 1010.7 0.0
24/07:00am 26.7 30.6 23.0 80 2.5 SSW 7 9 4 5 1010.6 1010.3 0.0
24/06:30am 26.2 30.1 22.9 82 2.2 SSW 7 9 4 5 1010.3 1010.0 0.0
24/06:00am 26.0 29.9 22.9 83 2.1 SSW 7 9 4 5 1010.1 1009.8 0.0
24/05:30am 26.1 29.9 22.8 82 2.2 SSW 7 9 4 5 1009.8 1009.5 0.0
24/05:00am 26.7 30.8 23.0 80 2.5 WSW 6 7 3 4 1009.8 1009.5 0.0
24/04:30am 26.6 30.7 22.9 80 2.5 SW 6 7 3 4 1009.7 1009.4 0.0
24/04:00am 26.8 30.6 22.8 79 2.7 WSW 7 9 4 5 1009.5 1009.2 0.0
24/03:30am 27.1 31.2 22.9 78 2.9 WSW 6 7 3 4 1009.5 1009.2 0.0
24/03:00am 27.2 31.2 22.8 77 3.0 SW 6 7 3 4 1009.7 1009.4 0.0
24/02:30am 27.1 31.0 22.5 76 3.1 SW 6 7 3 4 1009.7 1009.4 0.0
24/02:00am 27.9 31.6 22.6 73 3.6 N 7 11 4 6 1009.6 1009.3 0.0
24/01:30am 28.2 30.8 22.7 72 3.7 NE 13 19 7 10 1009.7 1009.4 0.0
24/01:00am 28.2 30.9 22.2 70 4.1 NE 11 15 6 8 1009.8 1009.5 0.0
24/12:30am 28.2 31.6 22.0 69 4.2 NNE 7 9 4 5 1010.0 1009.7 0.0
24/12:00am 28.2 31.2 22.0 69 4.2 NE 9 13 5 7 1010.1 1009.8 0.0
 
Date/Time
CST
Temp
°C
App
Temp
°C
Dew
Point
Rel
Hum
%
Delta-T
°C
Wind Press
QNH
hPa
Press
MSL
hPa
Rain
since 9 am
mm
Dir
 
Spd
km/h
Gust
km/h
Spd
kts
Gust
kts
23/11:30pm 28.2 31.6 21.7 68 4.4 NNE 6 7 3 4 1010.3 1010.0 0.0
23/11:00pm 28.5 31.6 21.5 66 4.7 NNW 7 9 4 5 1010.2 1009.9 0.0
23/10:30pm 29.0 32.1 21.5 64 5.0 NNW 7 9 4 5 1010.1 1009.8 0.0
23/10:00pm 29.4 32.4 20.8 60 5.7 NNW 6 7 3 4 1009.8 1009.5 0.0
23/09:30pm 29.9 32.5 20.5 57 6.2 N 7 9 4 5 1009.7 1009.4 0.0
23/09:00pm 30.7 32.3 20.0 52 7.1 N 11 17 6 9 1009.3 1009.0 0.0
23/08:30pm 31.4 32.3 20.0 50 7.5 N 15 22 8 12 1008.8 1008.5 0.0
23/08:00pm 32.2 32.2 19.8 48 8.2 N 19 28 10 15 1008.3 1008.0 0.0
23/07:30pm 33.1 32.2 19.9 45 8.8 NNE 24 33 13 18 1007.4 1007.2 0.0
23/07:00pm 34.1 33.7 19.4 42 9.7 N 20 30 11 16 1006.9 1006.7 0.0
23/06:30pm 35.5 34.8 18.6 37 11.1 N 20 32 11 17 1006.5 1006.3 0.0
23/06:00pm 36.5 36.0 19.0 35 11.6 N 20 33 11 18 1006.0 1005.8 0.0
23/05:30pm 38.4 38.0 17.2 28 13.8 NNE 15 22 8 12 1005.8 1005.6 0.0
23/05:00pm 39.7 38.5 14.0 22 16.0 ENE 13 19 7 10 1005.8 1005.6 0.0
23/04:30pm 39.3 38.1 15.0 24 15.4 N 15 19 8 10 1006.0 1005.8 0.0
23/04:00pm 39.3 38.5 15.0 24 15.4 ENE 13 24 7 13 1006.2 1006.0 0.0

Other Formats:

Comma delimited format used in spreadsheet applications
http://www.bom.gov.au/fwo/IDD60801/IDD60801.94137.axf

JavaScript Object Notation format (JSON) in row-major order
http://www.bom.gov.au/fwo/IDD60801/IDD60801.94137.json